createdAt,value
2023-05-17T00:00:26.480Z,6.57
2023-05-17T00:02:53.190Z,7.18
2023-05-17T00:05:19.909Z,9.00
2023-05-17T00:07:47.433Z,6.35
2023-05-17T00:10:14.138Z,8.65
2023-05-17T00:12:40.839Z,6.45
2023-05-17T00:15:07.807Z,6.47
2023-05-17T00:17:34.706Z,6.68
2023-05-17T00:20:01.651Z,9.50
2023-05-17T00:22:28.353Z,10.23
2023-05-17T00:24:55.266Z,10.00
2023-05-17T00:27:24.533Z,7.38
2023-05-17T00:29:51.598Z,12.43
2023-05-17T00:32:18.291Z,11.48
2023-05-17T00:34:45.017Z,7.28
2023-05-17T00:37:11.778Z,9.35
2023-05-17T00:39:38.495Z,10.60
2023-05-17T00:42:05.401Z,9.38
2023-05-17T00:44:32.119Z,8.23
2023-05-17T00:47:03.100Z,9.35
2023-05-17T00:49:29.869Z,9.23
2023-05-17T00:51:56.706Z,9.43
2023-05-17T00:54:23.369Z,7.57
2023-05-17T00:56:50.054Z,7.50
2023-05-17T00:59:16.738Z,10.73
2023-05-17T01:01:43.548Z,10.05
2023-05-17T01:04:10.733Z,10.00
2023-05-17T01:06:37.509Z,4.45
2023-05-17T01:09:05.221Z,8.77
2023-05-17T01:12:01.192Z,7.88
2023-05-17T01:14:46.173Z,11.38
2023-05-17T01:17:17.065Z,9.40
2023-05-17T01:19:59.022Z,9.52
2023-05-17T01:22:25.795Z,13.05
2023-05-17T01:25:12.134Z,8.65
2023-05-17T01:27:41.124Z,9.95
2023-05-17T01:30:08.633Z,14.00
2023-05-17T01:32:35.487Z,9.75
2023-05-17T01:35:05.238Z,11.52
2023-05-17T01:37:31.919Z,11.48
2023-05-17T01:39:58.576Z,13.20
2023-05-17T01:42:32.519Z,8.60
2023-05-17T01:45:10.373Z,12.95
2023-05-17T01:47:42.213Z,12.95
2023-05-17T01:50:08.962Z,8.65
2023-05-17T01:52:37.883Z,11.48
2023-05-17T01:55:35.452Z,8.88
2023-05-17T01:58:02.197Z,11.30
2023-05-17T02:00:28.902Z,13.80
2023-05-17T02:02:55.658Z,6.60
2023-05-17T02:05:22.387Z,13.25
2023-05-17T02:07:49.061Z,13.50
2023-05-17T02:10:15.863Z,8.20
2023-05-17T02:12:42.889Z,9.23
2023-05-17T02:15:12.089Z,8.50
2023-05-17T02:17:40.454Z,13.98
2023-05-17T02:22:34.395Z,10.50
2023-05-17T02:25:01.277Z,7.90
2023-05-17T02:27:28.024Z,14.65
2023-05-17T02:29:54.790Z,13.35
2023-05-17T02:32:21.472Z,13.93
2023-05-17T02:34:48.306Z,11.93
2023-05-17T02:37:15.024Z,11.30
2023-05-17T02:39:41.732Z,10.68
2023-05-17T02:42:08.430Z,9.23
2023-05-17T02:44:35.116Z,8.13
2023-05-17T02:47:01.836Z,8.63
2023-05-17T02:49:28.563Z,12.73
2023-05-17T02:51:55.299Z,18.30
2023-05-17T02:54:22.195Z,14.35
2023-05-17T02:56:49.179Z,13.13
2023-05-17T02:59:15.924Z,12.02
2023-05-17T03:01:42.662Z,10.10
2023-05-17T03:04:09.445Z,9.57
2023-05-17T03:06:36.224Z,10.82
2023-05-17T03:09:02.989Z,9.88
2023-05-17T03:11:29.667Z,10.50
2023-05-17T03:13:56.385Z,15.45
2023-05-17T03:16:23.105Z,15.27
2023-05-17T03:18:49.962Z,13.43
2023-05-17T03:21:16.783Z,13.57
2023-05-17T03:23:43.447Z,13.07
2023-05-17T03:26:10.097Z,17.45
2023-05-17T03:28:36.853Z,15.77
2023-05-17T03:31:03.602Z,12.73
2023-05-17T03:33:30.444Z,16.65
2023-05-17T03:35:57.225Z,12.10
2023-05-17T03:38:23.893Z,17.10
2023-05-17T03:40:52.029Z,11.75
2023-05-17T03:43:18.778Z,14.35
2023-05-17T03:45:45.649Z,14.07
2023-05-17T03:48:12.393Z,16.10
2023-05-17T03:50:41.071Z,13.05
2023-05-17T03:53:07.933Z,20.10
2023-05-17T03:55:34.696Z,30.33
2023-05-17T03:58:01.424Z,22.27
2023-05-17T04:00:28.109Z,16.35
2023-05-17T04:02:54.818Z,15.93
2023-05-17T04:05:21.746Z,13.93
2023-05-17T04:07:48.583Z,20.15
2023-05-17T04:10:15.366Z,21.30
2023-05-17T04:12:42.009Z,24.38
2023-05-17T04:15:09.137Z,22.75
2023-05-17T04:17:36.371Z,21.33
2023-05-17T04:20:06.446Z,17.52
2023-05-17T04:22:33.670Z,24.40
2023-05-17T04:25:00.512Z,22.05
2023-05-17T04:27:27.312Z,20.77
2023-05-17T04:29:54.008Z,18.50
2023-05-17T04:32:21.483Z,22.08
2023-05-17T04:34:48.204Z,21.10
2023-05-17T04:37:15.994Z,17.40
2023-05-17T04:39:42.809Z,15.77
2023-05-17T04:42:09.926Z,19.33
2023-05-17T04:44:36.616Z,18.10
2023-05-17T04:47:04.001Z,21.20
2023-05-17T04:49:30.749Z,23.30
2023-05-17T04:51:57.397Z,28.90
2023-05-17T04:54:25.008Z,26.13
2023-05-17T04:56:51.729Z,25.38
2023-05-17T04:59:18.421Z,20.75
2023-05-17T05:01:45.162Z,20.60
2023-05-17T05:04:11.985Z,24.92
2023-05-17T05:06:38.909Z,19.25
2023-05-17T05:09:05.730Z,31.70
2023-05-17T05:11:32.466Z,30.60
2023-05-17T05:13:59.165Z,23.92
2023-05-17T05:16:26.265Z,21.50
2023-05-17T05:18:53.141Z,25.00
2023-05-17T05:21:20.012Z,25.33
2023-05-17T05:23:46.724Z,24.80
2023-05-17T05:26:13.390Z,26.35
2023-05-17T05:28:40.209Z,26.27
2023-05-17T05:31:06.897Z,23.35
2023-05-17T05:33:33.880Z,28.98
2023-05-17T05:36:00.759Z,22.38
2023-05-17T05:38:27.490Z,33.13
2023-05-17T05:40:54.205Z,20.65
2023-05-17T05:43:20.948Z,23.52
2023-05-17T05:45:47.729Z,29.35
2023-05-17T05:48:14.660Z,36.65
2023-05-17T05:50:42.944Z,37.53
2023-05-17T05:53:18.905Z,34.35
2023-05-17T05:55:46.575Z,31.65
2023-05-17T05:58:13.289Z,30.02
2023-05-17T06:00:40.057Z,41.78
2023-05-17T06:03:06.804Z,32.65
2023-05-17T06:05:33.741Z,29.90
2023-05-17T06:08:00.524Z,32.00
2023-05-17T06:10:27.496Z,32.83
2023-05-17T06:12:54.435Z,25.00
2023-05-17T06:15:21.206Z,23.70
2023-05-17T06:17:47.947Z,18.17
2023-05-17T06:20:16.451Z,23.77
2023-05-17T06:22:43.856Z,17.52
2023-05-17T06:25:11.480Z,21.90
2023-05-17T06:27:38.210Z,25.92
2023-05-17T06:30:07.316Z,24.85
2023-05-17T06:32:34.369Z,20.80
2023-05-17T06:35:01.682Z,26.27
2023-05-17T06:37:28.468Z,24.80
2023-05-17T06:40:10.085Z,26.98
2023-05-17T06:42:42.109Z,19.58
2023-05-17T06:45:09.309Z,19.35
2023-05-17T06:47:36.108Z,18.88
2023-05-17T06:50:03.191Z,15.40
2023-05-17T06:52:29.977Z,16.23
2023-05-17T06:54:56.635Z,21.60
2023-05-17T06:57:24.400Z,21.80
2023-05-17T06:59:52.333Z,17.92
2023-05-17T07:02:19.573Z,23.38
2023-05-17T07:04:46.296Z,14.15
2023-05-17T07:07:13.007Z,17.45
2023-05-17T07:09:40.081Z,20.60
2023-05-17T07:12:07.084Z,14.85
2023-05-17T07:14:33.820Z,22.38
2023-05-17T07:17:00.689Z,13.75
2023-05-17T07:19:27.571Z,14.38
2023-05-17T07:21:54.377Z,17.73
2023-05-17T07:24:21.097Z,15.63
2023-05-17T07:26:48.482Z,15.93
2023-05-17T07:29:16.107Z,16.92
2023-05-17T07:31:42.897Z,12.77
2023-05-17T07:34:09.636Z,20.40
2023-05-17T07:36:36.415Z,20.10
2023-05-17T07:39:05.299Z,12.52
2023-05-17T07:41:34.286Z,13.43
2023-05-17T07:44:01.355Z,12.95
2023-05-17T07:46:28.027Z,13.40
2023-05-17T07:48:58.292Z,15.77
2023-05-17T07:51:25.670Z,9.13
2023-05-17T07:53:52.489Z,18.25
2023-05-17T07:56:19.240Z,12.70
2023-05-17T07:58:45.930Z,16.48
2023-05-17T08:01:12.605Z,14.90
2023-05-17T08:03:39.818Z,15.88
2023-05-17T08:06:06.732Z,18.02
2023-05-17T08:08:33.524Z,26.08
2023-05-17T08:11:00.253Z,22.30
2023-05-17T08:13:26.959Z,22.48
2023-05-17T08:16:01.678Z,20.38
2023-05-17T08:18:37.484Z,19.02
2023-05-17T08:21:04.838Z,17.65
2023-05-17T08:23:31.593Z,14.00
2023-05-17T08:25:59.277Z,15.13
2023-05-17T08:28:26.002Z,17.13
2023-05-17T08:30:52.659Z,20.58
2023-05-17T08:33:20.900Z,15.60
2023-05-17T08:35:47.871Z,14.13
2023-05-17T08:38:14.554Z,15.73
2023-05-17T08:40:41.427Z,18.33
2023-05-17T08:43:09.064Z,16.75
2023-05-17T08:45:36.884Z,18.05
2023-05-17T08:48:03.697Z,13.43
2023-05-17T08:50:30.703Z,19.80
2023-05-17T08:52:58.575Z,16.25
2023-05-17T08:55:26.450Z,12.63
2023-05-17T08:57:53.196Z,11.85
2023-05-17T09:00:20.515Z,16.65
2023-05-17T09:02:47.400Z,12.38
2023-05-17T09:05:15.143Z,18.58
2023-05-17T09:07:42.999Z,13.57
2023-05-17T09:10:10.139Z,13.38
2023-05-17T09:12:36.842Z,17.48
2023-05-17T09:15:17.392Z,18.38
2023-05-17T09:22:38.525Z,14.35
2023-05-17T09:25:05.846Z,14.35
2023-05-17T09:27:32.704Z,14.55
2023-05-17T09:29:59.413Z,13.50
2023-05-17T09:32:27.272Z,16.05
2023-05-17T09:34:56.299Z,15.80
2023-05-17T09:37:23.244Z,17.85
2023-05-17T09:39:49.999Z,13.93
2023-05-17T09:42:17.798Z,8.85
2023-05-17T09:44:57.712Z,8.63
2023-05-17T09:47:28.739Z,10.50
2023-05-17T09:50:00.859Z,7.63
2023-05-17T09:52:35.228Z,11.38
2023-05-17T09:57:29.503Z,11.20
2023-05-17T09:59:57.536Z,9.98
2023-05-17T10:02:32.876Z,8.05
2023-05-17T10:04:59.665Z,13.20
2023-05-17T10:07:26.940Z,8.40
2023-05-17T10:09:54.755Z,11.30
2023-05-17T10:12:27.612Z,10.82
2023-05-17T10:14:56.301Z,12.35
2023-05-17T10:17:26.734Z,23.58
2023-05-17T10:19:53.841Z,23.10
2023-05-17T10:22:23.722Z,18.30
2023-05-17T10:24:54.165Z,15.35
2023-05-17T10:27:21.694Z,19.90
2023-05-17T10:29:50.487Z,20.08
2023-05-17T10:32:17.484Z,23.23
2023-05-17T10:34:45.785Z,16.00
2023-05-17T10:37:14.130Z,14.85
2023-05-17T10:39:43.862Z,13.48
2023-05-17T10:42:14.731Z,13.63
2023-05-17T10:44:42.041Z,14.52
2023-05-17T10:47:09.035Z,13.65
2023-05-17T10:49:37.457Z,14.80
2023-05-17T10:52:13.898Z,14.90
2023-05-17T10:54:44.327Z,14.32
2023-05-17T10:57:22.725Z,16.25
2023-05-17T10:59:57.774Z,12.63
2023-05-17T11:02:24.574Z,9.80
2023-05-17T11:04:56.246Z,7.20
2023-05-17T11:07:27.997Z,8.65
2023-05-17T11:09:56.500Z,31.85
2023-05-17T11:12:42.559Z,32.22
2023-05-17T11:15:10.665Z,12.70
2023-05-17T11:17:43.419Z,10.00
2023-05-17T11:20:29.669Z,10.05
2023-05-17T11:23:07.123Z,15.55
2023-05-17T11:25:40.640Z,10.93
2023-05-17T11:28:19.471Z,15.68
2023-05-17T11:30:51.775Z,13.70
2023-05-17T11:33:32.471Z,14.40
2023-05-17T11:36:05.516Z,14.48
2023-05-17T11:38:33.147Z,21.77
2023-05-17T11:41:01.475Z,8.55
2023-05-17T11:43:31.107Z,5.47
2023-05-17T11:45:58.730Z,8.45
2023-05-17T11:48:26.677Z,10.80
2023-05-17T11:50:55.168Z,9.90
2023-05-17T11:53:22.157Z,13.70
2023-05-17T11:55:52.546Z,4.82
2023-05-17T11:58:26.179Z,5.10
2023-05-17T12:00:55.382Z,6.32
2023-05-17T12:03:22.980Z,5.80
2023-05-17T12:05:50.804Z,10.18
2023-05-17T12:08:18.567Z,9.27
2023-05-17T12:10:46.999Z,7.20
2023-05-17T12:13:13.796Z,7.78
2023-05-17T12:15:40.700Z,10.25
2023-05-17T12:18:07.615Z,10.60
2023-05-17T12:23:04.857Z,17.83
2023-05-17T12:25:31.548Z,13.10
2023-05-17T12:28:18.791Z,15.32
2023-05-17T12:38:21.701Z,14.48
2023-05-17T12:40:48.624Z,14.50
2023-05-17T12:43:15.726Z,9.88
2023-05-17T12:45:42.625Z,6.55
2023-05-17T12:48:09.734Z,11.27
2023-05-17T12:50:36.622Z,9.88
2023-05-17T12:53:09.053Z,13.40
2023-05-17T12:55:39.080Z,10.38
2023-05-17T12:58:06.167Z,8.93
2023-05-17T13:00:33.241Z,6.55
2023-05-17T13:03:00.425Z,16.73
2023-05-17T13:05:27.358Z,12.48
2023-05-17T13:07:54.145Z,13.45
2023-05-17T13:10:26.406Z,11.18
2023-05-17T13:12:57.311Z,10.50
2023-05-17T13:15:30.616Z,11.25
2023-05-17T13:17:57.656Z,11.77
2023-05-17T13:20:24.755Z,10.20
2023-05-17T13:22:52.165Z,9.15
2023-05-17T13:25:19.459Z,5.07
2023-05-17T13:27:46.975Z,5.10
2023-05-17T13:30:14.075Z,3.45
2023-05-17T13:32:41.605Z,9.23
2023-05-17T13:35:08.735Z,13.88
2023-05-17T13:37:36.407Z,12.25
2023-05-17T13:40:04.076Z,12.57
2023-05-17T13:42:32.148Z,14.38
2023-05-17T13:44:59.183Z,14.98
2023-05-17T13:47:26.382Z,14.73
2023-05-17T13:49:53.287Z,14.98
2023-05-17T13:52:20.266Z,14.98
2023-05-17T13:54:47.285Z,16.25
2023-05-17T13:57:14.164Z,14.85
2023-05-17T13:59:41.634Z,9.75
2023-05-17T14:02:09.457Z,12.02
2023-05-17T14:04:36.586Z,11.30
2023-05-17T14:07:03.893Z,11.52
2023-05-17T14:09:34.551Z,9.80
2023-05-17T14:12:01.833Z,10.00
2023-05-17T14:14:29.193Z,9.63
2023-05-17T14:16:56.288Z,11.45
2023-05-17T14:19:23.199Z,13.82
2023-05-17T14:21:50.470Z,19.20
2023-05-17T14:24:17.329Z,27.08
2023-05-17T14:26:44.373Z,22.58
2023-05-17T14:29:11.414Z,18.85
2023-05-17T14:31:38.210Z,18.17
2023-05-17T14:34:05.249Z,13.75
2023-05-17T14:36:34.068Z,11.80
2023-05-17T14:39:01.192Z,20.88
2023-05-17T14:41:27.990Z,18.05
2023-05-17T14:43:54.737Z,15.88
2023-05-17T14:46:21.533Z,19.23
2023-05-17T14:48:48.528Z,16.80
2023-05-17T14:51:15.786Z,19.13
2023-05-17T14:53:43.213Z,17.80
2023-05-17T14:56:10.140Z,13.15
2023-05-17T14:58:36.975Z,14.73
2023-05-17T15:01:05.463Z,14.68
2023-05-17T15:03:34.300Z,9.00
2023-05-17T15:06:02.889Z,13.98
2023-05-17T15:08:32.272Z,11.20
2023-05-17T15:10:59.122Z,11.32
2023-05-17T15:13:26.567Z,10.68
2023-05-17T15:15:53.527Z,11.05
2023-05-17T15:18:20.797Z,10.52
2023-05-17T15:20:47.622Z,14.80
2023-05-17T15:23:14.520Z,11.68
2023-05-17T15:25:41.660Z,42.10
2023-05-17T15:28:08.501Z,16.35
2023-05-17T15:30:35.352Z,21.13
2023-05-17T15:33:02.820Z,18.48
2023-05-17T15:35:30.116Z,13.63
2023-05-17T15:37:58.829Z,11.40
2023-05-17T15:42:52.682Z,10.75
2023-05-17T15:45:21.552Z,9.80
2023-05-17T15:47:49.597Z,9.50
2023-05-17T15:50:17.033Z,11.45
2023-05-17T15:52:43.988Z,14.45
2023-05-17T15:55:11.214Z,14.88
2023-05-17T15:57:38.017Z,18.38
2023-05-17T16:00:05.461Z,15.77
2023-05-17T16:02:32.262Z,18.63
2023-05-17T16:05:01.262Z,17.20
2023-05-17T16:07:30.348Z,22.30
2023-05-17T16:09:57.208Z,17.42
2023-05-17T16:12:24.081Z,16.10
2023-05-17T16:14:50.977Z,18.65
2023-05-17T16:17:17.818Z,19.52
2023-05-17T16:19:44.695Z,18.05
2023-05-17T16:22:11.815Z,16.95
2023-05-17T16:24:39.008Z,12.63
2023-05-17T16:27:07.991Z,18.50
2023-05-17T16:29:39.988Z,9.15
2023-05-17T16:32:08.195Z,13.13
2023-05-17T16:34:35.655Z,13.02
2023-05-17T16:37:04.195Z,22.52
2023-05-17T16:39:31.281Z,40.15
2023-05-17T16:41:58.207Z,47.45
2023-05-17T16:44:25.026Z,54.97
2023-05-17T16:46:52.054Z,39.60
2023-05-17T16:49:19.124Z,41.85
2023-05-17T16:51:46.115Z,44.00
2023-05-17T16:54:12.967Z,37.53
2023-05-17T16:56:39.807Z,41.13
2023-05-17T16:59:06.604Z,34.28
2023-05-17T17:01:33.517Z,39.00
2023-05-17T17:04:00.955Z,38.33
2023-05-17T17:06:27.849Z,35.00
2023-05-17T17:08:54.646Z,35.40
2023-05-17T17:11:22.185Z,36.38
2023-05-17T17:13:49.555Z,42.53
2023-05-17T17:16:16.484Z,50.47
2023-05-17T17:18:43.676Z,53.25
2023-05-17T17:21:10.599Z,48.72
2023-05-17T17:23:37.753Z,44.75
2023-05-17T17:26:04.832Z,46.42
2023-05-17T17:28:31.723Z,36.17
2023-05-17T17:30:58.629Z,31.30
2023-05-17T17:33:25.562Z,33.53
2023-05-17T17:35:52.532Z,36.72
2023-05-17T17:38:20.126Z,35.20
2023-05-17T17:40:47.174Z,29.50
2023-05-17T17:43:14.333Z,34.40
2023-05-17T17:45:41.720Z,27.20
2023-05-17T17:48:08.675Z,22.92
2023-05-17T17:50:36.153Z,11.15
2023-05-17T17:53:03.035Z,11.40
2023-05-17T17:55:29.850Z,14.25
2023-05-17T17:57:56.906Z,16.02
2023-05-17T18:00:24.443Z,14.05
2023-05-17T18:02:51.707Z,13.82
2023-05-17T18:05:18.990Z,16.05
2023-05-17T18:07:45.943Z,18.73
2023-05-17T18:10:12.849Z,17.20
2023-05-17T18:12:40.033Z,16.40
2023-05-17T18:15:07.753Z,15.73
2023-05-17T18:17:34.708Z,17.80
2023-05-17T18:20:01.607Z,19.48
2023-05-17T18:22:30.914Z,21.08
2023-05-17T18:24:57.768Z,20.95
2023-05-17T18:27:24.941Z,15.95
2023-05-17T18:29:51.927Z,18.27
2023-05-17T18:32:18.798Z,19.23
2023-05-17T18:34:45.976Z,26.90
2023-05-17T18:37:12.818Z,25.13
2023-05-17T18:39:39.716Z,13.57
2023-05-17T18:42:06.875Z,14.02
2023-05-17T18:44:35.410Z,14.80
2023-05-17T18:47:02.236Z,11.70
2023-05-17T18:49:29.473Z,35.78
2023-05-17T18:51:56.835Z,12.55
2023-05-17T18:54:23.746Z,7.82
2023-05-17T18:56:51.108Z,11.98
2023-05-17T18:59:17.938Z,9.20
2023-05-17T19:01:44.842Z,21.83
2023-05-17T19:04:11.823Z,15.30
2023-05-17T19:06:41.474Z,9.15
2023-05-17T19:09:08.688Z,15.05
2023-05-17T19:11:35.657Z,12.55
2023-05-17T19:14:02.712Z,9.32
2023-05-17T19:16:29.784Z,16.52
2023-05-17T19:18:56.628Z,16.42
2023-05-17T19:21:23.591Z,15.70
2023-05-17T19:23:50.635Z,15.60
2023-05-17T19:26:17.472Z,16.42
2023-05-17T19:28:44.257Z,15.35
2023-05-17T19:31:12.219Z,14.35
2023-05-17T19:33:39.138Z,16.30
2023-05-17T19:36:06.169Z,13.40
2023-05-17T19:38:33.723Z,15.82
2023-05-17T19:41:01.506Z,15.95
2023-05-17T19:43:28.444Z,14.80
2023-05-17T19:45:55.292Z,14.50
2023-05-17T19:48:24.185Z,16.13
2023-05-17T19:50:51.586Z,17.35
2023-05-17T19:53:18.498Z,17.02
2023-05-17T19:55:45.517Z,16.75
2023-05-17T19:58:12.263Z,13.98
2023-05-17T20:00:39.122Z,11.02
2023-05-17T20:03:06.065Z,10.38
2023-05-17T20:05:33.011Z,9.80
2023-05-17T20:08:02.784Z,10.60
2023-05-17T20:10:32.917Z,10.43
2023-05-17T20:13:00.395Z,12.50
2023-05-17T20:15:27.195Z,15.38
2023-05-17T20:17:54.030Z,12.90
2023-05-17T20:20:20.923Z,8.85
2023-05-17T20:22:48.201Z,10.55
2023-05-17T20:25:15.117Z,13.43
2023-05-17T20:27:41.898Z,9.63
2023-05-17T20:30:09.372Z,8.18
2023-05-17T20:32:36.291Z,11.93
2023-05-17T20:35:03.105Z,12.13
2023-05-17T20:37:29.909Z,10.32
2023-05-17T20:40:00.292Z,7.57
2023-05-17T20:42:28.394Z,7.68
2023-05-17T20:44:55.649Z,8.77
2023-05-17T20:47:22.671Z,8.98
2023-05-17T20:49:50.441Z,15.25
2023-05-17T20:52:31.387Z,13.60
2023-05-17T20:55:06.198Z,6.90
2023-05-17T20:57:33.054Z,5.10
2023-05-17T20:59:59.908Z,7.22
2023-05-17T21:02:27.486Z,6.30
2023-05-17T21:04:54.973Z,6.20
2023-05-17T21:07:22.689Z,7.40
2023-05-17T21:09:49.567Z,6.30
2023-05-17T21:12:16.431Z,6.07
2023-05-17T21:14:43.241Z,4.03
2023-05-17T21:17:10.511Z,9.55
2023-05-17T21:19:37.467Z,10.95
2023-05-17T21:22:05.124Z,10.27
2023-05-17T21:24:32.083Z,8.50
2023-05-17T21:26:59.248Z,6.43
2023-05-17T21:29:26.056Z,8.75
2023-05-17T21:31:53.271Z,7.07
2023-05-17T21:34:20.159Z,10.90
2023-05-17T21:36:47.052Z,12.02
2023-05-17T21:39:13.905Z,7.47
2023-05-17T21:41:41.460Z,7.45
2023-05-17T21:44:08.356Z,8.93
2023-05-17T21:46:35.218Z,13.40
2023-05-17T21:49:02.345Z,16.55
2023-05-17T21:51:29.235Z,14.00
2023-05-17T21:53:56.300Z,6.00
2023-05-17T21:56:23.239Z,8.57
2023-05-17T21:58:50.150Z,5.72
2023-05-17T22:01:20.205Z,5.00
2023-05-17T22:03:47.724Z,3.70
2023-05-17T22:06:14.622Z,4.47
2023-05-17T22:08:42.776Z,4.40
2023-05-17T22:11:11.060Z,7.43
2023-05-17T22:13:38.278Z,8.77
2023-05-17T22:16:06.350Z,5.43
2023-05-17T22:18:33.436Z,7.38
2023-05-17T22:21:00.222Z,9.95
2023-05-17T22:23:27.517Z,3.85
2023-05-17T22:25:57.389Z,2.25
2023-05-17T22:28:24.445Z,5.47
2023-05-17T22:30:51.529Z,6.18
2023-05-17T22:33:18.700Z,4.65
2023-05-17T22:35:46.772Z,6.07
2023-05-17T22:38:16.064Z,6.60
2023-05-17T22:40:43.716Z,7.43
2023-05-17T22:43:10.878Z,4.63
2023-05-17T22:45:38.544Z,3.60
2023-05-17T22:48:06.118Z,3.25
2023-05-17T22:50:33.403Z,3.40
2023-05-17T22:53:01.380Z,5.97
2023-05-17T22:55:28.665Z,4.40
2023-05-17T22:57:56.130Z,3.33
2023-05-17T23:00:23.682Z,2.28
2023-05-17T23:02:50.825Z,2.00
2023-05-17T23:05:18.454Z,2.75
2023-05-17T23:07:47.598Z,4.38
2023-05-17T23:10:15.773Z,4.78
2023-05-17T23:12:42.878Z,5.50
2023-05-17T23:15:10.684Z,4.28
2023-05-17T23:17:39.187Z,3.65
2023-05-17T23:22:37.681Z,3.83
2023-05-17T23:25:06.140Z,6.03
2023-05-17T23:27:33.609Z,3.90
2023-05-17T23:30:01.238Z,2.53
2023-05-17T23:32:28.408Z,3.38
2023-05-17T23:34:58.650Z,4.93
2023-05-17T23:37:25.696Z,2.72
2023-05-17T23:39:52.751Z,2.33
2023-05-17T23:42:20.492Z,4.22
2023-05-17T23:44:48.944Z,2.30
2023-05-17T23:47:16.079Z,3.28
2023-05-17T23:49:43.177Z,2.25
2023-05-17T23:52:11.361Z,4.40
2023-05-17T23:54:41.645Z,2.67
2023-05-17T23:57:08.965Z,1.70
2023-05-17T23:59:36.762Z,3.53
